Time;durP1;ratioP1;P1;durP2;ratioP2;P2;SDS_P1;SDS_P2;PMS_P1;PMS_P2;Temp;Humidity;BMP_temperature;BMP_pressure;BME280_temperature;BME280_humidity;BME280_pressure;Samples;Min_cycle;Max_cycle;Signal;HPM_P1;HPM_P2
2021/01/13 09:07:44;;;;;;;12.93;5.03;;;;;;;0.03;98.74;99010.16;5160863;27;20536;-81
2021/01/13 09:10:13;;;;;;;13.30;6.50;;;;;;;0.59;99.04;99019.53;5154017;22;39164;-79
2021/01/13 09:12:43;;;;;;;11.03;4.20;;;;;;;1.05;97.68;99014.19;5028404;28;40807;-79
2021/01/13 09:15:12;;;;;;;7.20;4.37;;;;;;;1.57;95.15;99028.69;5029597;28;41494;-80
2021/01/13 09:17:41;;;;;;;10.17;4.30;;;;;;;2.03;93.38;99032.75;5028972;28;41469;-81
2021/01/13 09:23:01;;;;;;;9.10;4.27;;;;;;;2.67;89.16;99033.66;5025137;28;20660;-82
2021/01/13 09:25:30;;;;;;;8.67;3.83;;;;;;;2.96;88.26;99032.84;5008450;28;41952;-82
2021/01/13 09:28:00;;;;;;;10.10;3.97;;;;;;;3.30;86.92;99044.03;5024888;28;42780;-82
2021/01/13 09:30:30;;;;;;;7.37;3.80;;;;;;;3.56;86.77;99019.66;5024607;28;40634;-81
2021/01/13 09:32:59;;;;;;;11.83;4.00;;;;;;;3.67;84.96;99043.75;5098671;22;41563;-82
2021/01/13 09:35:28;;;;;;;8.30;3.77;;;;;;;3.47;84.41;99046.09;5008484;28;42890;-83
2021/01/13 09:37:56;;;;;;;8.33;3.83;;;;;;;3.06;84.30;99029.91;5005199;28;41380;-82
2021/01/13 09:40:51;;;;;;;6.20;4.50;;;;;;;3.12;86.20;99049.78;5005944;28;39785;-83
2021/01/13 09:43:28;;;;;;;8.07;3.83;;;;;;;3.03;86.41;99048.31;5008781;28;40758;-82
2021/01/13 09:45:56;;;;;;;7.57;3.43;;;;;;;3.04;86.80;99044.78;5166167;22;43405;-82
2021/01/13 09:48:25;;;;;;;7.77;4.03;;;;;;;3.03;87.61;99045.69;5085487;28;42851;-82
2021/01/13 09:51:01;;;;;;;9.53;4.40;;;;;;;2.98;87.04;99041.47;5084036;28;39840;-82
2021/01/13 09:53:31;;;;;;;10.23;4.83;;;;;;;3.05;87.49;99037.81;5085045;28;41511;-82
2021/01/13 09:56:07;;;;;;;9.10;3.93;;;;;;;3.03;87.29;99029.16;5159877;22;42725;-82
2021/01/13 09:58:43;;;;;;;11.47;4.73;;;;;;;3.06;86.74;99036.91;5085221;28;42704;-81
2021/01/13 10:01:13;;;;;;;5.70;4.20;;;;;;;3.10;87.15;99035.91;5077002;28;39297;-81
2021/01/13 10:03:43;;;;;;;6.57;4.17;;;;;;;3.13;87.42;99031.44;5048174;28;41039;-82
2021/01/13 10:06:18;;;;;;;9.83;4.70;;;;;;;2.82;87.00;98994.00;5047529;28;41898;-81
2021/01/13 10:08:46;;;;;;;9.50;4.43;;;;;;;3.14;87.17;99043.63;5143837;22;41156;-81
2021/01/13 10:11:16;;;;;;;7.50;4.40;;;;;;;3.12;86.90;99024.50;5083506;28;40262;-81
2021/01/13 10:13:45;;;;;;;10.00;5.80;;;;;;;3.29;86.60;99031.84;5067821;28;40670;-83
2021/01/13 10:16:13;;;;;;;10.43;5.30;;;;;;;3.24;86.09;99005.78;5067110;28;41545;-81
2021/01/13 10:18:52;;;;;;;10.20;5.90;;;;;;;3.38;85.21;99023.69;5107212;22;41494;31
2021/01/13 10:21:20;;;;;;;9.73;5.80;;;;;;;3.38;83.83;99015.00;4992088;28;38553;-82
2021/01/13 10:23:48;;;;;;;8.53;5.97;;;;;;;3.37;83.79;99008.03;4995095;28;40882;-81
2021/01/13 10:26:17;;;;;;;6.77;5.10;;;;;;;3.54;83.72;99019.72;5010845;28;44339;-82
2021/01/13 10:28:45;;;;;;;11.57;6.03;;;;;;;3.52;81.18;99002.31;5011897;28;42656;-82
2021/01/13 10:31:23;;;;;;;10.70;5.37;;;;;;;3.69;81.81;98999.19;5090355;22;40240;-81
2021/01/13 10:33:53;;;;;;;10.50;5.57;;;;;;;3.81;81.64;98976.06;5011119;28;41912;-82
2021/01/13 10:36:38;;;;;;;11.63;5.73;;;;;;;4.12;80.36;98998.59;4994020;28;42966;-82
2021/01/13 10:39:08;;;;;;;8.13;5.20;;;;;;;4.28;79.52;98999.78;4994597;28;42136;-83
2021/01/13 10:41:38;;;;;;;9.57;6.17;;;;;;;4.46;79.23;99004.38;5009658;28;39320;-82
2021/01/13 10:44:08;;;;;;;8.53;4.60;;;;;;;4.60;79.10;98999.47;5116564;22;40957;-82
2021/01/13 10:46:56;;;;;;;8.03;5.00;;;;;;;4.60;76.19;99004.72;5033862;28;42756;-82
2021/01/13 10:49:36;;;;;;;7.93;5.30;;;;;;;4.69;76.87;99004.41;5034655;28;41484;-82
2021/01/13 10:52:05;;;;;;;7.67;4.80;;;;;;;4.87;76.55;98976.63;5033311;28;40075;-83
2021/01/13 10:54:34;;;;;;;8.60;5.07;;;;;;;5.15;73.85;99005.31;5118848;22;40795;-82
2021/01/13 10:57:05;;;;;;;9.33;5.33;;;;;;;5.15;74.99;98967.72;5050365;28;43355;-82
2021/01/13 10:59:33;;;;;;;7.33;5.10;;;;;;;5.42;74.43;98998.16;5034188;28;41062;-82
2021/01/13 11:02:03;;;;;;;6.83;4.53;;;;;;;5.52;74.11;98988.97;5033028;28;38886;-82
2021/01/13 11:04:33;;;;;;;8.67;5.10;;;;;;;5.63;73.54;98975.41;5048869;28;41705;-83
2021/01/13 11:07:03;;;;;;;9.73;4.60;;;;;;;5.83;73.76;98983.31;5123998;22;41967;-80
2021/01/13 11:09:31;;;;;;;9.73;4.00;;;;;;;6.17;70.55;98989.84;5030955;28;41389;-82
2021/01/13 11:11:59;;;;;;;7.93;3.73;;;;;;;8.15;69.00;98989.34;5013269;28;39007;-82
2021/01/13 11:14:35;;;;;;;6.37;3.30;;;;;;;9.62;63.92;98994.63;5013531;28;40865;-83
2021/01/13 11:17:09;;;;;;;6.63;3.33;;;;;;;9.28;63.19;98997.41;5118293;22;44881;-83
2021/01/13 11:19:38;;;;;;;11.17;3.60;;;;;;;8.93;60.41;99015.19;4992539;28;39391;-82
2021/01/13 11:22:07;;;;;;;7.47;3.80;;;;;;;8.36;62.47;98984.78;5009925;28;40609;-82
2021/01/13 11:24:39;;;;;;;6.77;3.33;;;;;;;8.08;61.00;99004.59;4993539;28;41728;-81
2021/01/13 11:27:10;;;;;;;5.77;3.60;;;;;;;7.87;61.20;98995.97;5018581;28;41858;-82
2021/01/13 11:29:41;;;;;;;6.73;3.20;;;;;;;7.66;62.06;98989.13;5125447;22;41960;-82
2021/01/13 11:32:12;;;;;;;7.20;3.40;;;;;;;7.52;63.65;98968.72;5038759;28;39033;-82
2021/01/13 11:34:40;;;;;;;6.57;3.23;;;;;;;7.33;60.79;98994.22;5032954;28;40606;-81
2021/01/13 11:37:33;;;;;;;4.30;2.60;;;;;;;7.54;62.55;98971.28;5033002;28;42544;-82
2021/01/13 11:43:41;;;;;;;5.60;2.90;;;;;;;9.22;58.77;98984.56;5028147;28;40951;-82
2021/01/13 11:46:14;;;;;;;5.37;2.50;;;;;;;10.15;56.46;98993.31;5028347;28;40377;-82
2021/01/13 11:49:29;;;;;;;7.47;2.80;;;;;;;9.51;56.97;98989.09;5029707;28;41899;-82
2021/01/13 11:52:00;;;;;;;5.53;3.07;;;;;;;8.78;56.38;98998.34;5042610;22;42208;31
2021/01/13 11:54:28;;;;;;;5.93;3.50;;;;;;;8.27;58.83;98981.66;5009879;28;38599;-82
2021/01/13 11:57:20;;;;;;;7.80;3.10;;;;;;;7.86;60.03;98957.38;5044569;28;41385;-82
2021/01/13 11:59:49;;;;;;;7.07;3.50;;;;;;;7.55;61.58;98946.59;5028837;28;42480;-82
2021/01/13 12:02:31;;;;;;;6.77;3.23;;;;;;;7.20;62.09;98906.16;5011841;28;41835;-81
2021/01/13 12:04:58;;;;;;;5.83;2.80;;;;;;;7.33;61.90;98956.47;5097713;22;38501;-82
2021/01/13 12:07:26;;;;;;;5.07;3.00;;;;;;;7.09;60.87;98966.41;5009680;28;42334;-82
2021/01/13 12:10:10;;;;;;;6.97;3.10;;;;;;;7.02;62.20;98949.19;5014777;28;41742;-82
2021/01/13 12:12:38;;;;;;;5.67;2.77;;;;;;;6.94;61.54;98951.31;5028056;28;43097;-80
2021/01/13 12:15:39;;;;;;;5.33;2.97;;;;;;;6.82;62.36;98948.31;5012534;22;39021;31
2021/01/13 12:18:11;;;;;;;7.23;3.10;;;;;;;6.85;63.44;98931.53;4986654;28;42030;-81
2021/01/13 12:20:39;;;;;;;7.13;2.93;;;;;;;6.74;61.73;98932.03;5005350;28;43497;-82
2021/01/13 12:23:28;;;;;;;7.40;2.83;;;;;;;6.60;63.33;98896.72;4989215;28;41551;-81
2021/01/13 12:26:13;;;;;;;6.07;3.60;;;;;;;6.89;63.86;98908.56;5004770;28;39938;-81
2021/01/13 12:29:24;;;;;;;5.93;3.50;;;;;;;7.05;62.61;98923.53;5166324;22;41950;-82
2021/01/13 12:32:12;;;;;;;6.23;2.97;;;;;;;7.10;62.15;98920.69;5110059;27;42705;-81
2021/01/13 12:34:42;;;;;;;6.50;3.03;;;;;;;7.09;62.21;98906.69;5092650;28;41100;-81
2021/01/13 12:37:09;;;;;;;5.10;3.23;;;;;;;6.94;61.51;98896.00;5091298;28;39205;-81
2021/01/13 12:39:41;;;;;;;6.20;3.30;;;;;;;6.95;61.86;98897.72;5165419;22;41681;-81
2021/01/13 12:42:16;;;;;;;7.00;3.37;;;;;;;7.15;61.70;98910.81;5047142;28;44287;-81
2021/01/13 12:44:44;;;;;;;8.10;3.00;;;;;;;7.42;61.18;98908.59;5031380;28;42055;-82
2021/01/13 12:47:11;;;;;;;5.77;3.10;;;;;;;7.78;60.90;98891.00;5047864;28;40567;-81
2021/01/13 12:49:39;;;;;;;5.63;3.20;;;;;;;8.01;60.17;98903.00;5047952;28;41250;-81
2021/01/13 12:52:07;;;;;;;6.03;3.07;;;;;;;9.31;56.73;98915.34;5099233;22;43677;-81
2021/01/13 12:54:34;;;;;;;4.23;3.00;;;;;;;11.52;51.29;98951.25;5007841;28;42805;-81
2021/01/13 12:57:01;;;;;;;5.87;2.53;;;;;;;13.48;47.17;98968.75;4990979;28;39114;-81
2021/01/13 12:59:28;;;;;;;3.77;2.50;;;;;;;15.85;42.54;98989.50;5016158;28;40325;-82
2021/01/13 13:01:55;;;;;;;5.80;2.17;;;;;;;17.98;38.69;99000.47;5063170;22;42005;-81
2021/01/13 13:04:22;;;;;;;6.47;2.60;;;;;;;19.35;34.35;99009.94;5028491;28;39806;-81
2021/01/13 13:06:51;;;;;;;3.30;1.90;;;;;;;18.30;36.01;98990.31;5031189;28;39007;-81
2021/01/13 13:09:18;;;;;;;4.53;2.03;;;;;;;16.95;38.28;98972.19;5035009;28;41755;-81
2021/01/13 13:11:45;;;;;;;5.10;2.53;;;;;;;16.23;37.49;98966.78;5010790;28;43092;-80
2021/01/13 13:14:13;;;;;;;5.77;2.60;;;;;;;14.45;41.17;98923.34;5119221;22;42710;-80
2021/01/13 13:16:41;;;;;;;6.00;2.40;;;;;;;13.38;43.36;98929.63;5047625;28;40128;-81
2021/01/13 13:19:09;;;;;;;5.77;3.03;;;;;;;12.41;44.42;98906.38;5030299;28;41877;-80
2021/01/13 13:21:37;;;;;;;6.10;2.90;;;;;;;11.82;45.72;98910.44;5046553;28;42486;-79
2021/01/13 13:24:06;;;;;;;3.77;2.20;;;;;;;11.03;45.91;98908.47;5047656;28;42271;-78
2021/01/13 13:26:34;;;;;;;5.60;2.47;;;;;;;10.16;46.95;98889.16;5122498;22;39809;-78
2021/01/13 13:29:01;;;;;;;4.57;2.43;;;;;;;9.66;48.03;98900.09;5047748;28;41774;-79
2021/01/13 13:31:28;;;;;;;6.73;2.50;;;;;;;9.12;49.39;98893.53;5046146;28;42451;-79
2021/01/13 13:33:55;;;;;;;4.50;2.40;;;;;;;8.54;50.68;98854.47;5047152;28;42359;-78
2021/01/13 13:36:22;;;;;;;5.00;2.23;;;;;;;8.27;51.53;98876.13;5030609;28;41261;-78
2021/01/13 13:38:51;;;;;;;4.10;2.00;;;;;;;7.91;52.23;98885.94;5115561;22;40732;-78
2021/01/13 13:41:19;;;;;;;3.40;2.73;;;;;;;7.62;53.33;98868.97;5029609;28;42373;-78
2021/01/13 13:43:46;;;;;;;4.90;1.97;;;;;;;7.33;54.46;98846.69;5030325;28;41425;-79
2021/01/13 13:46:13;;;;;;;10.07;2.90;;;;;;;7.17;55.11;98830.78;5046583;28;40599;-78
2021/01/13 13:48:40;;;;;;;6.63;2.67;;;;;;;7.09;55.77;98843.47;5132532;22;41356;-79
2021/01/13 13:51:08;;;;;;;6.97;2.90;;;;;;;6.70;56.18;98806.75;5026734;28;43329;-78
2021/01/13 13:53:37;;;;;;;5.40;2.67;;;;;;;6.60;56.53;98818.66;5012841;28;41165;-78
2021/01/13 13:56:05;;;;;;;5.00;2.73;;;;;;;6.52;57.27;98820.81;5014338;28;39449;-78
2021/01/13 13:58:34;;;;;;;7.27;2.43;;;;;;;6.47;57.28;98830.66;5013816;28;42143;-78
2021/01/13 14:01:02;;;;;;;5.20;2.40;;;;;;;6.35;57.89;98829.47;5117531;22;42498;-78
2021/01/13 14:03:29;;;;;;;6.67;3.27;;;;;;;6.19;58.25;98809.19;5030395;28;42701;-79
2021/01/13 14:05:56;;;;;;;8.47;2.87;;;;;;;6.22;58.67;98827.47;5029722;28;40045;-78
2021/01/13 14:08:23;;;;;;;7.37;3.60;;;;;;;6.10;59.01;98813.94;5030744;28;42549;-78
2021/01/13 14:10:50;;;;;;;5.57;2.90;;;;;;;6.09;59.25;98806.97;5030066;28;42594;-78
2021/01/13 14:13:17;;;;;;;4.57;3.07;;;;;;;6.13;59.55;98816.44;5099298;22;41282;-78
2021/01/13 14:15:46;;;;;;;7.50;3.43;;;;;;;6.13;59.82;98819.06;5010585;28;38397;-78
2021/01/13 14:18:13;;;;;;;7.23;3.10;;;;;;;6.12;59.61;98806.00;5009612;28;42446;-78
2021/01/13 14:20:41;;;;;;;4.63;2.47;;;;;;;6.11;59.58;98805.13;5005992;28;42760;-78
2021/01/13 14:25:59;;;;;;;7.23;3.47;;;;;;;6.09;59.95;98796.47;5049146;28;20671;-78
2021/01/13 14:28:26;;;;;;;6.97;3.20;;;;;;;6.19;59.91;98802.16;5047910;28;42258;-78
2021/01/13 14:30:54;;;;;;;7.93;3.27;;;;;;;6.12;59.98;98793.69;5046956;28;44659;-78
2021/01/13 14:33:21;;;;;;;7.47;3.60;;;;;;;6.17;59.96;98793.50;5047390;28;42035;-78
2021/01/13 14:35:48;;;;;;;5.37;3.17;;;;;;;6.09;60.04;98774.56;5134691;22;39837;-78
2021/01/13 14:38:15;;;;;;;6.00;3.13;;;;;;;6.08;59.99;98757.94;5156095;22;41699;-83
2021/01/13 14:40:43;;;;;;;7.63;3.50;;;;;;;6.11;60.38;98778.84;5085148;28;42908;-82
2021/01/13 14:43:10;;;;;;;6.63;3.10;;;;;;;5.74;60.50;98747.22;5069745;28;42294;-83
2021/01/13 14:45:37;;;;;;;7.30;3.70;;;;;;;5.65;60.72;98764.25;5053624;28;39001;-82
2021/01/13 14:48:07;;;;;;;9.40;3.60;;;;;;;5.51;61.45;98774.53;5128952;22;41133;-82
2021/01/13 14:50:35;;;;;;;5.27;2.70;;;;;;;5.27;61.95;98773.81;5032848;28;42047;-81
2021/01/13 14:53:02;;;;;;;5.43;3.20;;;;;;;5.03;62.75;98744.19;5034572;28;41440;-81
2021/01/13 14:55:29;;;;;;;6.63;3.30;;;;;;;4.87;63.10;98739.63;5033587;28;39289;-82
2021/01/13 14:57:56;;;;;;;7.53;3.13;;;;;;;4.81;63.71;98742.53;5049976;28;40434;-84
2021/01/13 15:00:23;;;;;;;4.70;3.30;;;;;;;4.74;63.47;98741.06;5133468;22;42434;-83
2021/01/13 15:02:51;;;;;;;6.40;3.23;;;;;;;4.80;63.76;98752.16;5051943;28;42112;-82
2021/01/13 15:05:19;;;;;;;8.40;3.40;;;;;;;4.69;64.05;98734.25;5052810;28;39914;-82
2021/01/13 15:07:46;;;;;;;6.73;3.30;;;;;;;4.42;64.30;98696.03;5053288;28;40416;-82
2021/01/13 15:10:14;;;;;;;4.80;3.20;;;;;;;4.63;64.40;98738.88;5036577;28;41906;-82
2021/01/13 15:12:41;;;;;;;5.97;3.00;;;;;;;4.53;64.35;98725.28;5146060;22;41296;-79
2021/01/13 15:15:09;;;;;;;7.90;3.13;;;;;;;4.42;64.74;98724.84;5066269;28;40348;-81
2021/01/13 15:17:36;;;;;;;5.40;3.27;;;;;;;4.26;65.31;98721.13;5033525;28;41216;-80
2021/01/13 15:20:05;;;;;;;6.47;3.03;;;;;;;4.19;65.44;98709.19;5049657;28;43492;-82
2021/01/13 15:22:34;;;;;;;4.70;3.40;;;;;;;4.19;65.81;98717.06;5120296;22;41188;-81
2021/01/13 15:25:01;;;;;;;5.87;3.70;;;;;;;4.28;65.37;98729.78;5052996;28;39145;-80
2021/01/13 15:27:29;;;;;;;5.00;3.23;;;;;;;4.18;65.74;98704.84;5053644;28;40998;-81
2021/01/13 15:29:56;;;;;;;5.83;3.47;;;;;;;4.17;65.76;98708.38;5052448;28;42556;-81
2021/01/13 15:32:23;;;;;;;6.60;3.30;;;;;;;4.02;66.13;98696.72;5052498;28;41634;-81
2021/01/13 15:34:50;;;;;;;6.60;3.10;;;;;;;3.92;66.57;98687.53;5115517;23;39173;-81
2021/01/13 15:37:17;;;;;;;8.63;3.53;;;;;;;3.85;66.73;98696.50;5024426;28;41596;-81
2021/01/13 15:39:45;;;;;;;4.70;2.80;;;;;;;3.66;67.02;98691.13;5034236;28;42358;-81
2021/01/13 15:42:13;;;;;;;6.67;3.03;;;;;;;3.71;67.12;98710.13;5049995;28;42913;-82
2021/01/13 15:44:44;;;;;;;8.40;2.93;;;;;;;3.66;67.60;98706.84;5049055;28;41264;-82
2021/01/13 15:47:16;;;;;;;6.63;2.67;;;;;;;3.62;67.68;98702.63;5121157;22;40699;-82
2021/01/13 15:49:44;;;;;;;5.10;2.23;;;;;;;3.62;67.57;98705.22;5025523;28;43797;-82
2021/01/13 15:52:18;;;;;;;6.17;3.33;;;;;;;3.50;67.67;98680.34;5010182;28;42133;-82
2021/01/13 15:54:48;;;;;;;4.83;2.83;;;;;;;3.50;67.33;98675.13;5010367;28;38532;-82
2021/01/13 15:57:18;;;;;;;9.33;2.97;;;;;;;3.69;67.63;98696.25;5151156;22;41644;-82
2021/01/13 15:59:45;;;;;;;3.60;2.47;;;;;;;3.68;67.29;98699.78;5012382;28;41411;-82
2021/01/13 16:02:13;;;;;;;3.43;2.60;;;;;;;3.62;67.52;98684.28;4995947;28;43255;-81
2021/01/13 16:04:42;;;;;;;3.70;2.60;;;;;;;3.41;67.64;98644.06;5027810;28;39590;-81
2021/01/13 16:07:09;;;;;;;3.57;2.03;;;;;;;3.56;67.68;98685.38;5014827;28;41810;-81
2021/01/13 16:09:37;;;;;;;5.53;3.00;;;;;;;3.47;67.69;98650.81;5111598;22;43154;-81
2021/01/13 16:12:10;;;;;;;5.13;2.70;;;;;;;3.51;67.74;98681.22;5035700;28;41156;-81
2021/01/13 16:14:41;;;;;;;6.40;2.70;;;;;;;3.40;67.97;98668.53;5041059;28;39364;-82
2021/01/13 16:17:09;;;;;;;4.37;2.93;;;;;;;3.34;67.82;98649.59;5008737;28;41152;-81
2021/01/13 16:19:36;;;;;;;5.13;2.37;;;;;;;3.42;68.16;98679.78;5032952;28;42916;-81
2021/01/13 16:22:04;;;;;;;7.37;2.40;;;;;;;3.23;68.24;98644.72;5092758;22;41179;-80
2021/01/13 16:24:32;;;;;;;5.70;2.27;;;;;;;3.44;68.16;98680.59;4975771;28;38591;-80
2021/01/13 16:27:00;;;;;;;6.40;2.53;;;;;;;3.41;68.21;98672.00;4991497;28;41565;-81
2021/01/13 16:29:29;;;;;;;5.43;2.50;;;;;;;3.38;68.15;98661.63;4975401;28;44262;-81
2021/01/13 16:34:55;;;;;;;6.60;2.27;;;;;;;3.36;67.87;98671.28;5008938;28;38572;-80
2021/01/13 16:37:22;;;;;;;4.40;2.10;;;;;;;3.42;67.49;98686.78;5026142;28;41613;-80
2021/01/13 16:39:52;;;;;;;7.10;2.30;;;;;;;3.41;67.68;98677.22;5007888;28;43286;-80
2021/01/13 16:42:25;;;;;;;8.67;2.70;;;;;;;3.44;67.81;98677.13;5011360;28;41486;-80
2021/01/13 16:44:56;;;;;;;4.50;2.33;;;;;;;3.50;67.71;98674.25;5133969;22;39448;-80
2021/01/13 16:47:24;;;;;;;6.10;2.97;;;;;;;3.47;67.87;98670.00;5048309;28;41015;-81
2021/01/13 16:49:52;;;;;;;5.20;2.60;;;;;;;3.53;67.66;98675.00;5056110;28;42492;-80
2021/01/13 16:52:25;;;;;;;4.93;3.00;;;;;;;3.54;68.04;98660.16;5022270;28;42319;-80
2021/01/13 16:54:54;;;;;;;6.60;3.77;;;;;;;3.47;68.04;98643.81;5030755;28;39994;-80
2021/01/13 16:57:25;;;;;;;5.13;3.40;;;;;;;3.18;68.44;98594.34;5121249;22;40685;-81
2021/01/13 17:00:07;;;;;;;6.43;3.70;;;;;;;3.30;68.89;98614.81;5031003;28;42848;-81
2021/01/13 17:02:39;;;;;;;13.60;4.03;;;;;;;3.47;69.90;98643.81;5047139;28;42262;-83
2021/01/13 17:05:11;;;;;;;8.50;3.30;;;;;;;3.07;69.41;98576.44;5029006;28;40768;-81
2021/01/13 17:07:39;;;;;;;5.20;3.47;;;;;;;3.43;69.59;98628.31;5107677;23;42794;-82
2021/01/13 17:10:09;;;;;;;5.37;3.73;;;;;;;3.19;69.37;98586.44;5071856;28;43255;-81
2021/01/13 17:12:39;;;;;;;9.27;3.90;;;;;;;3.57;69.64;98646.97;5051045;28;42727;-82
2021/01/13 17:15:09;;;;;;;6.37;3.97;;;;;;;3.51;69.37;98628.84;5034195;28;40460;-82
2021/01/13 17:17:36;;;;;;;5.60;3.33;;;;;;;3.33;69.61;98598.16;5051622;28;42244;-81
2021/01/13 17:20:08;;;;;;;5.27;4.03;;;;;;;3.44;69.67;98617.78;5114180;22;43033;-81
2021/01/13 17:22:36;;;;;;;6.87;3.67;;;;;;;3.50;69.37;98622.75;5027929;28;42060;-82
2021/01/13 17:25:09;;;;;;;6.63;3.70;;;;;;;3.49;69.25;98622.81;5027635;28;39835;-81
2021/01/13 17:27:37;;;;;;;5.70;3.40;;;;;;;3.43;69.34;98615.22;5029462;28;41827;-82
2021/01/13 17:33:12;;;;;;;6.90;3.40;;;;;;;3.52;69.48;98635.81;4981273;28;40850;-81
2021/01/13 17:35:39;;;;;;;5.83;3.00;;;;;;;3.44;69.32;98616.91;4971129;28;39862;-81
2021/01/13 17:38:11;;;;;;;6.20;2.93;;;;;;;3.51;69.44;98634.09;4989576;28;42272;-81
2021/01/13 17:40:39;;;;;;;8.87;3.53;;;;;;;3.43;69.38;98609.97;4969887;28;42725;-80
2021/01/13 17:43:08;;;;;;;8.27;3.20;;;;;;;3.46;69.57;98610.69;5112031;22;41873;-81
2021/01/13 17:45:37;;;;;;;5.20;2.83;;;;;;;3.45;69.16;98610.78;5017967;28;40552;-81
2021/01/13 17:48:05;;;;;;;5.07;3.17;;;;;;;3.53;69.29;98621.81;5034368;28;41860;-82
2021/01/13 17:50:33;;;;;;;4.40;2.90;;;;;;;3.51;69.18;98615.75;5018103;28;42031;-83
2021/01/13 17:53:03;;;;;;;5.47;3.07;;;;;;;3.47;68.85;98612.41;5019010;28;42069;-82
2021/01/13 17:55:33;;;;;;;6.00;3.20;;;;;;;3.47;68.78;98601.06;5117512;22;39037;-81
2021/01/13 17:58:01;;;;;;;3.90;2.37;;;;;;;3.55;69.00;98622.59;5047262;28;41511;-82
2021/01/13 18:00:29;;;;;;;4.03;2.43;;;;;;;3.40;69.14;98589.16;5014621;28;41807;-82
2021/01/13 18:02:58;;;;;;;5.63;2.70;;;;;;;3.57;68.69;98615.53;5031675;28;41407;-81
2021/01/13 18:05:28;;;;;;;4.70;2.63;;;;;;;3.52;68.84;98604.38;5107045;22;38850;-83
2021/01/13 18:07:57;;;;;;;4.63;2.80;;;;;;;3.49;68.95;98599.25;5034146;28;39155;-82
2021/01/13 18:10:25;;;;;;;5.37;3.00;;;;;;;3.56;68.69;98604.22;5034347;28;43305;-81
2021/01/13 18:12:55;;;;;;;7.27;3.03;;;;;;;3.46;68.85;98583.69;5034955;28;42294;-82
2021/01/13 18:15:24;;;;;;;5.07;2.80;;;;;;;3.45;68.96;98589.84;5034479;28;39888;-81
2021/01/13 18:17:56;;;;;;;5.03;3.00;;;;;;;3.31;68.96;98563.34;5113974;23;41907;-81
2021/01/13 18:20:24;;;;;;;7.17;3.37;;;;;;;3.56;68.89;98601.59;5033293;28;42811;-82
2021/01/13 18:22:55;;;;;;;5.10;2.77;;;;;;;3.40;68.91;98578.69;5017723;28;43082;-82
2021/01/13 18:25:23;;;;;;;6.50;2.87;;;;;;;3.50;68.72;98601.81;5032859;28;39868;-81
2021/01/13 18:27:55;;;;;;;5.77;3.57;;;;;;;3.48;68.56;98597.56;5033472;28;42228;-82
2021/01/13 18:30:24;;;;;;;5.97;3.07;;;;;;;3.50;68.75;98585.25;5141259;22;43191;-83
2021/01/13 18:33:41;;;;;;;7.00;4.13;;;;;;;3.62;68.80;98605.72;5070299;28;42316;-82
